sensor_id;sensor_type;location;lat;lon;timestamp;pressure;altitude;pressure_sealevel;temperature;humidity
64551;BME280;50945;44.472;-123.352;2023-07-08T00:00:20;99920.06;;;26.07;40.70
64551;BME280;50945;44.472;-123.352;2023-07-08T00:02:47;99921.25;;;26.01;40.91
64551;BME280;50945;44.472;-123.352;2023-07-08T00:05:15;99916.88;;;25.89;40.93
64551;BME280;50945;44.472;-123.352;2023-07-08T00:07:42;99916.69;;;25.80;41.10
64551;BME280;50945;44.472;-123.352;2023-07-08T00:10:20;99911.88;;;25.62;41.16
64551;BME280;50945;44.472;-123.352;2023-07-08T00:12:51;99918.97;;;25.49;41.23
64551;BME280;50945;44.472;-123.352;2023-07-08T00:15:20;99916.09;;;25.30;41.63
64551;BME280;50945;44.472;-123.352;2023-07-08T00:17:47;99912.03;;;25.12;41.83
64551;BME280;50945;44.472;-123.352;2023-07-08T00:20:32;99913.84;;;24.93;41.84
64551;BME280;50945;44.472;-123.352;2023-07-08T00:22:59;99920.09;;;24.79;42.09
64551;BME280;50945;44.472;-123.352;2023-07-08T00:25:27;99906.22;;;24.64;42.32
64551;BME280;50945;44.472;-123.352;2023-07-08T00:27:54;99901.53;;;24.54;42.49
64551;BME280;50945;44.472;-123.352;2023-07-08T00:32:52;99908.22;;;24.48;42.71
64551;BME280;50945;44.472;-123.352;2023-07-08T00:38:04;99910.00;;;24.34;42.83
64551;BME280;50945;44.472;-123.352;2023-07-08T00:40:38;99908.13;;;24.19;43.19
64551;BME280;50945;44.472;-123.352;2023-07-08T00:43:14;99903.13;;;24.05;43.42
64551;BME280;50945;44.472;-123.352;2023-07-08T00:45:47;99910.16;;;23.98;43.66
64551;BME280;50945;44.472;-123.352;2023-07-08T00:48:28;99906.84;;;23.85;43.66
64551;BME280;50945;44.472;-123.352;2023-07-08T00:50:55;99914.09;;;23.76;43.88
64551;BME280;50945;44.472;-123.352;2023-07-08T00:53:33;99905.50;;;23.57;43.82
64551;BME280;50945;44.472;-123.352;2023-07-08T00:56:33;99914.75;;;23.32;44.25
64551;BME280;50945;44.472;-123.352;2023-07-08T00:59:43;99911.97;;;23.06;45.15
64551;BME280;50945;44.472;-123.352;2023-07-08T01:02:12;99908.88;;;22.92;44.92
64551;BME280;50945;44.472;-123.352;2023-07-08T01:04:47;99915.81;;;22.90;45.05
64551;BME280;50945;44.472;-123.352;2023-07-08T01:07:15;99912.47;;;22.88;45.00
64551;BME280;50945;44.472;-123.352;2023-07-08T01:09:50;99919.19;;;22.87;45.28
64551;BME280;50945;44.472;-123.352;2023-07-08T01:12:27;99913.59;;;22.82;45.03
64551;BME280;50945;44.472;-123.352;2023-07-08T01:14:56;99916.91;;;22.63;45.19
64551;BME280;50945;44.472;-123.352;2023-07-08T01:17:24;99914.91;;;22.48;45.39
64551;BME280;50945;44.472;-123.352;2023-07-08T01:19:51;99917.91;;;22.31;45.54
64551;BME280;50945;44.472;-123.352;2023-07-08T01:22:16;99919.50;;;22.12;45.95
64551;BME280;50945;44.472;-123.352;2023-07-08T01:24:44;99916.72;;;22.07;45.78
64551;BME280;50945;44.472;-123.352;2023-07-08T01:27:13;99923.06;;;21.97;46.02
64551;BME280;50945;44.472;-123.352;2023-07-08T01:29:41;99924.13;;;21.86;46.10
64551;BME280;50945;44.472;-123.352;2023-07-08T01:32:12;99923.75;;;21.72;46.50
64551;BME280;50945;44.472;-123.352;2023-07-08T01:34:44;99923.66;;;21.56;46.82
64551;BME280;50945;44.472;-123.352;2023-07-08T01:37:37;99928.53;;;21.44;46.70
64551;BME280;50945;44.472;-123.352;2023-07-08T01:40:26;99930.16;;;21.35;47.24
64551;BME280;50945;44.472;-123.352;2023-07-08T01:42:53;99930.88;;;21.20;47.15
64551;BME280;50945;44.472;-123.352;2023-07-08T01:45:21;99931.31;;;21.06;47.22
64551;BME280;50945;44.472;-123.352;2023-07-08T01:47:56;99928.69;;;20.89;47.54
64551;BME280;50945;44.472;-123.352;2023-07-08T01:50:25;99933.56;;;20.77;47.50
64551;BME280;50945;44.472;-123.352;2023-07-08T01:52:53;99935.72;;;20.70;47.86
64551;BME280;50945;44.472;-123.352;2023-07-08T01:55:23;99935.91;;;20.63;48.18
64551;BME280;50945;44.472;-123.352;2023-07-08T01:57:53;99938.59;;;20.58;48.32
64551;BME280;50945;44.472;-123.352;2023-07-08T02:00:20;99941.06;;;20.55;48.28
64551;BME280;50945;44.472;-123.352;2023-07-08T02:02:47;99941.81;;;20.50;48.11
64551;BME280;50945;44.472;-123.352;2023-07-08T02:05:14;99943.38;;;20.41;48.41
64551;BME280;50945;44.472;-123.352;2023-07-08T02:07:40;99943.25;;;20.30;48.53
64551;BME280;50945;44.472;-123.352;2023-07-08T02:10:06;99951.94;;;20.12;50.63
64551;BME280;50945;44.472;-123.352;2023-07-08T02:12:33;99947.34;;;20.01;48.85
64551;BME280;50945;44.472;-123.352;2023-07-08T02:15:03;99949.91;;;19.85;49.14
64551;BME280;50945;44.472;-123.352;2023-07-08T02:17:29;99943.97;;;19.77;49.44
64551;BME280;50945;44.472;-123.352;2023-07-08T02:19:56;99957.38;;;19.68;49.63
64551;BME280;50945;44.472;-123.352;2023-07-08T02:22:23;99946.13;;;19.57;49.66
64551;BME280;50945;44.472;-123.352;2023-07-08T02:24:49;99951.81;;;19.46;49.90
64551;BME280;50945;44.472;-123.352;2023-07-08T02:27:15;99957.91;;;19.31;50.53
64551;BME280;50945;44.472;-123.352;2023-07-08T02:29:44;99961.97;;;19.23;50.06
64551;BME280;50945;44.472;-123.352;2023-07-08T02:32:11;99957.09;;;19.13;50.39
64551;BME280;50945;44.472;-123.352;2023-07-08T02:34:37;99966.41;;;19.07;50.60
64551;BME280;50945;44.472;-123.352;2023-07-08T02:37:04;99972.09;;;19.00;50.52
64551;BME280;50945;44.472;-123.352;2023-07-08T02:39:30;99978.41;;;18.96;50.73
64551;BME280;50945;44.472;-123.352;2023-07-08T02:41:56;99983.50;;;18.87;50.85
64551;BME280;50945;44.472;-123.352;2023-07-08T02:44:22;99984.69;;;18.79;51.13
64551;BME280;50945;44.472;-123.352;2023-07-08T02:46:49;99984.28;;;18.71;51.08
64551;BME280;50945;44.472;-123.352;2023-07-08T02:49:15;99982.63;;;18.58;51.34
64551;BME280;50945;44.472;-123.352;2023-07-08T02:51:41;99985.47;;;18.46;51.51
64551;BME280;50945;44.472;-123.352;2023-07-08T02:54:07;99994.03;;;18.33;51.74
64551;BME280;50945;44.472;-123.352;2023-07-08T02:56:33;99984.91;;;18.20;52.00
64551;BME280;50945;44.472;-123.352;2023-07-08T02:58:59;99990.22;;;18.10;52.26
64551;BME280;50945;44.472;-123.352;2023-07-08T03:01:25;99993.84;;;17.99;52.23
64551;BME280;50945;44.472;-123.352;2023-07-08T03:03:52;99992.78;;;17.88;52.53
64551;BME280;50945;44.472;-123.352;2023-07-08T03:06:22;99993.09;;;17.80;52.53
64551;BME280;50945;44.472;-123.352;2023-07-08T03:08:48;99996.72;;;17.68;52.96
64551;BME280;50945;44.472;-123.352;2023-07-08T03:11:14;100002.88;;;17.59;52.51
64551;BME280;50945;44.472;-123.352;2023-07-08T03:13:40;100002.13;;;17.52;52.93
64551;BME280;50945;44.472;-123.352;2023-07-08T03:16:07;100011.59;;;17.44;53.33
64551;BME280;50945;44.472;-123.352;2023-07-08T03:18:38;100017.97;;;17.33;53.37
64551;BME280;50945;44.472;-123.352;2023-07-08T03:21:13;100015.41;;;17.19;53.38
64551;BME280;50945;44.472;-123.352;2023-07-08T03:23:40;100015.75;;;17.11;54.24
64551;BME280;50945;44.472;-123.352;2023-07-08T03:26:07;100017.78;;;17.04;54.05
64551;BME280;50945;44.472;-123.352;2023-07-08T03:28:34;100022.81;;;16.95;54.38
64551;BME280;50945;44.472;-123.352;2023-07-08T03:31:00;100019.53;;;16.86;54.38
64551;BME280;50945;44.472;-123.352;2023-07-08T03:33:26;100025.09;;;16.80;54.81
64551;BME280;50945;44.472;-123.352;2023-07-08T03:35:53;100029.28;;;16.70;55.03
64551;BME280;50945;44.472;-123.352;2023-07-08T03:38:20;100023.44;;;16.60;54.82
64551;BME280;50945;44.472;-123.352;2023-07-08T03:40:46;100029.53;;;16.50;55.42
64551;BME280;50945;44.472;-123.352;2023-07-08T03:43:12;100020.97;;;16.40;55.40
64551;BME280;50945;44.472;-123.352;2023-07-08T03:45:38;100028.94;;;16.30;55.85
64551;BME280;50945;44.472;-123.352;2023-07-08T03:48:05;100039.66;;;16.20;56.16
64551;BME280;50945;44.472;-123.352;2023-07-08T03:50:31;100044.63;;;16.11;55.69
64551;BME280;50945;44.472;-123.352;2023-07-08T03:52:58;100041.31;;;16.02;56.38
64551;BME280;50945;44.472;-123.352;2023-07-08T03:55:24;100046.28;;;15.93;56.71
64551;BME280;50945;44.472;-123.352;2023-07-08T03:57:50;100052.94;;;15.86;56.61
64551;BME280;50945;44.472;-123.352;2023-07-08T04:00:17;100052.16;;;15.78;56.84
64551;BME280;50945;44.472;-123.352;2023-07-08T04:02:44;100054.56;;;15.68;57.03
64551;BME280;50945;44.472;-123.352;2023-07-08T04:05:15;100057.38;;;15.62;57.69
64551;BME280;50945;44.472;-123.352;2023-07-08T04:07:41;100061.03;;;15.55;57.39
64551;BME280;50945;44.472;-123.352;2023-07-08T04:10:09;100058.94;;;15.51;57.35
64551;BME280;50945;44.472;-123.352;2023-07-08T04:12:37;100066.41;;;15.44;57.57
64551;BME280;50945;44.472;-123.352;2023-07-08T04:15:04;100063.50;;;15.38;57.72
64551;BME280;50945;44.472;-123.352;2023-07-08T04:17:30;100078.16;;;15.32;58.00
64551;BME280;50945;44.472;-123.352;2023-07-08T04:19:56;100073.56;;;15.26;58.21
64551;BME280;50945;44.472;-123.352;2023-07-08T04:22:26;100076.34;;;15.19;58.42
64551;BME280;50945;44.472;-123.352;2023-07-08T04:24:52;100095.44;;;15.14;58.34
64551;BME280;50945;44.472;-123.352;2023-07-08T04:27:18;100097.16;;;15.09;58.92
64551;BME280;50945;44.472;-123.352;2023-07-08T04:29:44;100112.41;;;15.05;58.72
64551;BME280;50945;44.472;-123.352;2023-07-08T04:32:11;100110.97;;;15.02;59.34
64551;BME280;50945;44.472;-123.352;2023-07-08T04:34:37;100116.88;;;14.99;59.32
64551;BME280;50945;44.472;-123.352;2023-07-08T04:37:03;100123.06;;;14.94;59.02
64551;BME280;50945;44.472;-123.352;2023-07-08T04:39:32;100129.00;;;14.91;59.77
64551;BME280;50945;44.472;-123.352;2023-07-08T04:41:58;100130.50;;;14.87;59.23
64551;BME280;50945;44.472;-123.352;2023-07-08T04:44:25;100136.22;;;14.86;60.01
64551;BME280;50945;44.472;-123.352;2023-07-08T04:46:55;100138.78;;;14.80;59.54
64551;BME280;50945;44.472;-123.352;2023-07-08T04:49:23;100145.81;;;14.76;59.95
64551;BME280;50945;44.472;-123.352;2023-07-08T04:51:52;100145.59;;;14.71;59.55
64551;BME280;50945;44.472;-123.352;2023-07-08T04:54:18;100160.22;;;14.65;59.61
64551;BME280;50945;44.472;-123.352;2023-07-08T04:56:47;100150.72;;;14.61;59.80
64551;BME280;50945;44.472;-123.352;2023-07-08T04:59:17;100153.88;;;14.58;59.83
64551;BME280;50945;44.472;-123.352;2023-07-08T05:01:43;100154.53;;;14.53;60.19
64551;BME280;50945;44.472;-123.352;2023-07-08T05:04:14;100164.25;;;14.49;60.66
64551;BME280;50945;44.472;-123.352;2023-07-08T05:06:41;100164.69;;;14.46;60.54
64551;BME280;50945;44.472;-123.352;2023-07-08T05:09:10;100172.50;;;14.42;60.76
64551;BME280;50945;44.472;-123.352;2023-07-08T05:11:36;100177.59;;;14.39;62.39
64551;BME280;50945;44.472;-123.352;2023-07-08T05:14:03;100182.47;;;14.37;61.08
64551;BME280;50945;44.472;-123.352;2023-07-08T05:16:31;100178.66;;;14.31;61.02
64551;BME280;50945;44.472;-123.352;2023-07-08T05:18:58;100180.16;;;14.27;60.90
64551;BME280;50945;44.472;-123.352;2023-07-08T05:21:24;100169.56;;;14.24;61.12
64551;BME280;50945;44.472;-123.352;2023-07-08T05:23:53;100173.81;;;14.20;61.32
64551;BME280;50945;44.472;-123.352;2023-07-08T05:26:19;100186.94;;;14.18;61.75
64551;BME280;50945;44.472;-123.352;2023-07-08T05:28:46;100167.91;;;14.16;62.12
64551;BME280;50945;44.472;-123.352;2023-07-08T05:31:12;100171.91;;;14.14;62.28
64551;BME280;50945;44.472;-123.352;2023-07-08T05:33:38;100175.09;;;14.11;62.64
64551;BME280;50945;44.472;-123.352;2023-07-08T05:36:04;100176.34;;;14.08;62.96
64551;BME280;50945;44.472;-123.352;2023-07-08T05:38:30;100179.31;;;14.06;61.91
64551;BME280;50945;44.472;-123.352;2023-07-08T05:40:58;100181.44;;;14.04;62.05
64551;BME280;50945;44.472;-123.352;2023-07-08T05:43:28;100184.59;;;14.01;62.10
64551;BME280;50945;44.472;-123.352;2023-07-08T05:46:00;100181.22;;;13.99;62.56
64551;BME280;50945;44.472;-123.352;2023-07-08T05:48:26;100188.63;;;13.99;62.48
64551;BME280;50945;44.472;-123.352;2023-07-08T05:50:54;100189.03;;;13.96;62.63
64551;BME280;50945;44.472;-123.352;2023-07-08T05:53:20;100190.31;;;13.93;62.73
64551;BME280;50945;44.472;-123.352;2023-07-08T05:55:48;100202.56;;;13.91;63.17
64551;BME280;50945;44.472;-123.352;2023-07-08T05:58:14;100192.03;;;13.87;62.62
64551;BME280;50945;44.472;-123.352;2023-07-08T06:00:44;100199.59;;;13.85;62.91
64551;BME280;50945;44.472;-123.352;2023-07-08T06:03:10;100200.03;;;13.82;65.58
64551;BME280;50945;44.472;-123.352;2023-07-08T06:05:37;100208.50;;;13.81;62.84
64551;BME280;50945;44.472;-123.352;2023-07-08T06:08:05;100209.53;;;13.80;63.32
64551;BME280;50945;44.472;-123.352;2023-07-08T06:10:31;100211.84;;;13.76;63.32
64551;BME280;50945;44.472;-123.352;2023-07-08T06:12:57;100212.06;;;13.75;63.58
64551;BME280;50945;44.472;-123.352;2023-07-08T06:15:24;100209.50;;;13.73;63.88
64551;BME280;50945;44.472;-123.352;2023-07-08T06:17:50;100209.75;;;13.72;63.48
64551;BME280;50945;44.472;-123.352;2023-07-08T06:20:16;100215.25;;;13.72;63.66
64551;BME280;50945;44.472;-123.352;2023-07-08T06:22:42;100213.75;;;13.69;63.57
64551;BME280;50945;44.472;-123.352;2023-07-08T06:25:08;100212.69;;;13.63;63.84
64551;BME280;50945;44.472;-123.352;2023-07-08T06:27:35;100212.25;;;13.60;63.65
64551;BME280;50945;44.472;-123.352;2023-07-08T06:30:01;100218.34;;;13.55;64.17
64551;BME280;50945;44.472;-123.352;2023-07-08T06:32:27;100221.53;;;13.52;64.07
64551;BME280;50945;44.472;-123.352;2023-07-08T06:34:53;100227.44;;;13.49;64.22
64551;BME280;50945;44.472;-123.352;2023-07-08T06:37:19;100223.63;;;13.43;64.37
64551;BME280;50945;44.472;-123.352;2023-07-08T06:39:45;100221.28;;;13.40;64.36
64551;BME280;50945;44.472;-123.352;2023-07-08T06:42:11;100231.00;;;13.36;64.33
64551;BME280;50945;44.472;-123.352;2023-07-08T06:44:38;100218.88;;;13.30;64.43
64551;BME280;50945;44.472;-123.352;2023-07-08T06:47:04;100225.84;;;13.26;64.44
64551;BME280;50945;44.472;-123.352;2023-07-08T06:49:30;100221.84;;;13.22;64.45
64551;BME280;50945;44.472;-123.352;2023-07-08T06:51:56;100222.22;;;13.19;64.71
64551;BME280;50945;44.472;-123.352;2023-07-08T06:54:25;100220.97;;;13.15;64.77
64551;BME280;50945;44.472;-123.352;2023-07-08T06:56:53;100223.06;;;13.13;64.86
64551;BME280;50945;44.472;-123.352;2023-07-08T06:59:19;100223.28;;;13.11;64.80
64551;BME280;50945;44.472;-123.352;2023-07-08T07:01:45;100217.97;;;13.10;65.21
64551;BME280;50945;44.472;-123.352;2023-07-08T07:04:11;100224.72;;;13.07;65.09
64551;BME280;50945;44.472;-123.352;2023-07-08T07:06:38;100224.28;;;13.04;65.14
64551;BME280;50945;44.472;-123.352;2023-07-08T07:09:04;100230.19;;;13.01;65.17
64551;BME280;50945;44.472;-123.352;2023-07-08T07:11:30;100226.81;;;12.99;65.55
64551;BME280;50945;44.472;-123.352;2023-07-08T07:13:56;100232.50;;;12.97;65.46
64551;BME280;50945;44.472;-123.352;2023-07-08T07:16:22;100226.56;;;12.93;65.51
64551;BME280;50945;44.472;-123.352;2023-07-08T07:18:48;100229.72;;;12.90;65.61
64551;BME280;50945;44.472;-123.352;2023-07-08T07:21:17;100225.69;;;12.86;65.74
64551;BME280;50945;44.472;-123.352;2023-07-08T07:23:43;100228.63;;;12.85;65.58
64551;BME280;50945;44.472;-123.352;2023-07-08T07:26:09;100231.56;;;12.83;65.99
64551;BME280;50945;44.472;-123.352;2023-07-08T07:28:36;100230.06;;;12.81;66.05
64551;BME280;50945;44.472;-123.352;2023-07-08T07:31:02;100231.97;;;12.80;66.05
64551;BME280;50945;44.472;-123.352;2023-07-08T07:33:31;100227.75;;;12.78;66.13
64551;BME280;50945;44.472;-123.352;2023-07-08T07:35:57;100237.00;;;12.77;66.06
64551;BME280;50945;44.472;-123.352;2023-07-08T07:38:24;100234.28;;;12.77;66.46
64551;BME280;50945;44.472;-123.352;2023-07-08T07:40:55;100235.34;;;12.76;66.18
64551;BME280;50945;44.472;-123.352;2023-07-08T07:43:22;100241.84;;;12.74;66.52
64551;BME280;50945;44.472;-123.352;2023-07-08T07:45:51;100241.03;;;12.74;66.85
64551;BME280;50945;44.472;-123.352;2023-07-08T07:48:19;100245.44;;;12.75;66.57
64551;BME280;50945;44.472;-123.352;2023-07-08T07:50:49;100244.41;;;12.76;66.42
64551;BME280;50945;44.472;-123.352;2023-07-08T07:53:17;100242.69;;;12.75;66.69
64551;BME280;50945;44.472;-123.352;2023-07-08T07:55:44;100249.06;;;12.76;66.60
64551;BME280;50945;44.472;-123.352;2023-07-08T07:58:10;100235.53;;;12.74;66.42
64551;BME280;50945;44.472;-123.352;2023-07-08T08:00:39;100243.75;;;12.74;66.77
64551;BME280;50945;44.472;-123.352;2023-07-08T08:03:05;100248.81;;;12.77;66.95
64551;BME280;50945;44.472;-123.352;2023-07-08T08:05:31;100248.63;;;12.79;66.74
64551;BME280;50945;44.472;-123.352;2023-07-08T08:07:58;100257.06;;;12.77;66.41
64551;BME280;50945;44.472;-123.352;2023-07-08T08:10:24;100255.19;;;12.78;66.65
64551;BME280;50945;44.472;-123.352;2023-07-08T08:12:50;100264.44;;;12.77;66.71
64551;BME280;50945;44.472;-123.352;2023-07-08T08:15:19;100256.84;;;12.79;66.92
64551;BME280;50945;44.472;-123.352;2023-07-08T08:17:45;100257.50;;;12.81;66.88
64551;BME280;50945;44.472;-123.352;2023-07-08T08:20:14;100257.28;;;12.82;66.65
64551;BME280;50945;44.472;-123.352;2023-07-08T08:22:40;100255.63;;;12.81;66.54
64551;BME280;50945;44.472;-123.352;2023-07-08T08:25:07;100259.19;;;12.82;66.98
64551;BME280;50945;44.472;-123.352;2023-07-08T08:27:33;100258.97;;;12.77;73.51
64551;BME280;50945;44.472;-123.352;2023-07-08T08:29:59;100264.84;;;12.73;74.16
64551;BME280;50945;44.472;-123.352;2023-07-08T08:32:25;100260.63;;;12.71;67.45
64551;BME280;50945;44.472;-123.352;2023-07-08T08:34:51;100271.78;;;12.69;67.42
64551;BME280;50945;44.472;-123.352;2023-07-08T08:37:17;100273.88;;;12.67;67.37
64551;BME280;50945;44.472;-123.352;2023-07-08T08:39:43;100266.69;;;12.66;67.30
64551;BME280;50945;44.472;-123.352;2023-07-08T08:44:52;100268.78;;;12.64;67.46
64551;BME280;50945;44.472;-123.352;2023-07-08T08:47:38;100264.38;;;12.63;69.58
64551;BME280;50945;44.472;-123.352;2023-07-08T08:53:27;100265.16;;;12.57;68.09
64551;BME280;50945;44.472;-123.352;2023-07-08T08:56:03;100271.91;;;12.54;68.01
64551;BME280;50945;44.472;-123.352;2023-07-08T08:58:39;100272.28;;;12.51;67.73
64551;BME280;50945;44.472;-123.352;2023-07-08T09:01:12;100273.56;;;12.49;67.66
64551;BME280;50945;44.472;-123.352;2023-07-08T09:06:20;100279.63;;;12.44;68.23
64551;BME280;50945;44.472;-123.352;2023-07-08T09:08:49;100274.53;;;12.41;67.74
64551;BME280;50945;44.472;-123.352;2023-07-08T09:14:01;100268.16;;;12.34;68.14
64551;BME280;50945;44.472;-123.352;2023-07-08T09:20:26;100269.91;;;12.20;69.91
64551;BME280;50945;44.472;-123.352;2023-07-08T09:25:34;100285.72;;;12.18;69.00
64551;BME280;50945;44.472;-123.352;2023-07-08T09:28:02;100279.59;;;12.16;68.50
64551;BME280;50945;44.472;-123.352;2023-07-08T09:30:28;100279.97;;;12.13;68.40
64551;BME280;50945;44.472;-123.352;2023-07-08T09:32:56;100285.47;;;12.13;68.69
64551;BME280;50945;44.472;-123.352;2023-07-08T09:35:28;100280.16;;;12.11;68.77
64551;BME280;50945;44.472;-123.352;2023-07-08T09:37:55;100276.59;;;12.11;68.39
64551;BME280;50945;44.472;-123.352;2023-07-08T09:40:22;100274.03;;;12.09;68.78
64551;BME280;50945;44.472;-123.352;2023-07-08T09:42:53;100278.31;;;12.12;68.72
64551;BME280;50945;44.472;-123.352;2023-07-08T09:45:23;100283.34;;;12.15;68.42
64551;BME280;50945;44.472;-123.352;2023-07-08T09:47:56;100290.34;;;12.17;68.98
64551;BME280;50945;44.472;-123.352;2023-07-08T09:50:26;100283.81;;;12.18;68.65
64551;BME280;50945;44.472;-123.352;2023-07-08T09:52:55;100280.44;;;12.16;68.92
64551;BME280;50945;44.472;-123.352;2023-07-08T09:55:23;100282.97;;;12.18;68.53
64551;BME280;50945;44.472;-123.352;2023-07-08T09:57:52;100281.53;;;12.22;68.95
64551;BME280;50945;44.472;-123.352;2023-07-08T10:00:28;100280.50;;;12.23;69.22
64551;BME280;50945;44.472;-123.352;2023-07-08T10:02:57;100286.44;;;12.27;68.73
64551;BME280;50945;44.472;-123.352;2023-07-08T10:07:54;100294.91;;;12.32;68.83
64551;BME280;50945;44.472;-123.352;2023-07-08T10:10:34;100291.97;;;12.33;69.64
64551;BME280;50945;44.472;-123.352;2023-07-08T10:18:36;100296.06;;;12.44;68.74
64551;BME280;50945;44.472;-123.352;2023-07-08T10:21:21;100292.50;;;12.50;68.68
64551;BME280;50945;44.472;-123.352;2023-07-08T10:30:02;100296.00;;;12.66;69.18
64551;BME280;50945;44.472;-123.352;2023-07-08T10:38:06;100295.44;;;12.77;69.42
64551;BME280;50945;44.472;-123.352;2023-07-08T10:40:48;100286.19;;;12.78;69.70
64551;BME280;50945;44.472;-123.352;2023-07-08T10:49:15;100299.06;;;12.78;68.43
64551;BME280;50945;44.472;-123.352;2023-07-08T10:51:53;100295.88;;;12.74;68.61
64551;BME280;50945;44.472;-123.352;2023-07-08T11:05:44;100305.97;;;12.73;70.60
64551;BME280;50945;44.472;-123.352;2023-07-08T11:11:06;100303.47;;;12.79;69.03
64551;BME280;50945;44.472;-123.352;2023-07-08T11:13:39;100302.25;;;12.81;68.82
64551;BME280;50945;44.472;-123.352;2023-07-08T11:16:41;100297.81;;;12.80;71.01
64551;BME280;50945;44.472;-123.352;2023-07-08T11:19:19;100310.69;;;12.80;69.37
64551;BME280;50945;44.472;-123.352;2023-07-08T11:21:53;100304.34;;;12.79;68.64
64551;BME280;50945;44.472;-123.352;2023-07-08T11:24:45;100305.19;;;12.80;70.65
64551;BME280;50945;44.472;-123.352;2023-07-08T11:32:37;100309.59;;;12.81;69.10
64551;BME280;50945;44.472;-123.352;2023-07-08T11:35:12;100308.97;;;12.79;69.10
64551;BME280;50945;44.472;-123.352;2023-07-08T11:37:39;100304.34;;;12.79;69.02
64551;BME280;50945;44.472;-123.352;2023-07-08T11:40:19;100314.25;;;12.80;75.41
64551;BME280;50945;44.472;-123.352;2023-07-08T11:43:03;100309.41;;;12.82;69.29
64551;BME280;50945;44.472;-123.352;2023-07-08T11:45:36;100319.16;;;12.85;69.08
64551;BME280;50945;44.472;-123.352;2023-07-08T11:48:16;100312.41;;;12.87;70.11
64551;BME280;50945;44.472;-123.352;2023-07-08T11:50:49;100313.06;;;12.89;69.14
64551;BME280;50945;44.472;-123.352;2023-07-08T11:55:58;100303.38;;;12.93;69.07
64551;BME280;50945;44.472;-123.352;2023-07-08T12:03:35;100302.38;;;13.01;68.53
64551;BME280;50945;44.472;-123.352;2023-07-08T12:06:02;100313.59;;;13.06;68.38
64551;BME280;50945;44.472;-123.352;2023-07-08T12:08:46;100311.69;;;13.07;68.40
64551;BME280;50945;44.472;-123.352;2023-07-08T12:11:12;100312.31;;;13.09;68.28
64551;BME280;50945;44.472;-123.352;2023-07-08T12:13:40;100314.66;;;13.12;67.99
64551;BME280;50945;44.472;-123.352;2023-07-08T12:16:11;100325.25;;;13.15;68.39
64551;BME280;50945;44.472;-123.352;2023-07-08T12:18:39;100319.38;;;13.18;68.05
64551;BME280;50945;44.472;-123.352;2023-07-08T12:21:12;100309.03;;;13.20;67.78
64551;BME280;50945;44.472;-123.352;2023-07-08T12:23:45;100311.78;;;13.20;67.93
64551;BME280;50945;44.472;-123.352;2023-07-08T12:26:11;100322.94;;;13.19;67.82
64551;BME280;50945;44.472;-123.352;2023-07-08T12:28:42;100329.06;;;13.21;68.05
64551;BME280;50945;44.472;-123.352;2023-07-08T12:31:27;100319.81;;;13.22;69.23
64551;BME280;50945;44.472;-123.352;2023-07-08T12:33:53;100322.31;;;13.23;68.10
64551;BME280;50945;44.472;-123.352;2023-07-08T12:36:26;100320.44;;;13.24;68.06
64551;BME280;50945;44.472;-123.352;2023-07-08T12:38:56;100317.28;;;13.27;67.85
64551;BME280;50945;44.472;-123.352;2023-07-08T12:41:25;100323.44;;;13.29;67.75
64551;BME280;50945;44.472;-123.352;2023-07-08T12:43:53;100330.22;;;13.33;67.81
64551;BME280;50945;44.472;-123.352;2023-07-08T12:46:21;100338.91;;;13.37;67.77
64551;BME280;50945;44.472;-123.352;2023-07-08T12:48:47;100338.50;;;13.40;67.92
64551;BME280;50945;44.472;-123.352;2023-07-08T12:51:23;100338.09;;;13.43;67.88
64551;BME280;50945;44.472;-123.352;2023-07-08T12:53:52;100337.03;;;13.44;67.85
64551;BME280;50945;44.472;-123.352;2023-07-08T12:56:20;100338.50;;;13.46;68.03
64551;BME280;50945;44.472;-123.352;2023-07-08T12:58:50;100347.44;;;13.48;67.89
64551;BME280;50945;44.472;-123.352;2023-07-08T13:01:20;100339.81;;;13.50;68.08
64551;BME280;50945;44.472;-123.352;2023-07-08T13:03:50;100339.81;;;13.50;68.22
64551;BME280;50945;44.472;-123.352;2023-07-08T13:06:21;100336.66;;;13.54;68.12
64551;BME280;50945;44.472;-123.352;2023-07-08T13:08:48;100339.19;;;13.55;68.12
64551;BME280;50945;44.472;-123.352;2023-07-08T13:11:16;100340.06;;;13.56;68.45
64551;BME280;50945;44.472;-123.352;2023-07-08T13:13:50;100340.47;;;13.53;68.29
64551;BME280;50945;44.472;-123.352;2023-07-08T13:16:17;100339.63;;;13.52;68.55
64551;BME280;50945;44.472;-123.352;2023-07-08T13:18:43;100338.97;;;13.50;68.50
64551;BME280;50945;44.472;-123.352;2023-07-08T13:21:12;100338.75;;;13.52;68.55
64551;BME280;50945;44.472;-123.352;2023-07-08T13:23:40;100342.38;;;13.52;68.83
64551;BME280;50945;44.472;-123.352;2023-07-08T13:26:14;100337.72;;;13.53;68.95
64551;BME280;50945;44.472;-123.352;2023-07-08T13:28:41;100346.59;;;13.55;68.66
64551;BME280;50945;44.472;-123.352;2023-07-08T13:31:34;100346.41;;;13.56;70.59
64551;BME280;50945;44.472;-123.352;2023-07-08T13:34:08;100353.78;;;13.56;68.93
64551;BME280;50945;44.472;-123.352;2023-07-08T13:36:37;100349.97;;;13.57;68.53
64551;BME280;50945;44.472;-123.352;2023-07-08T13:39:08;100352.31;;;13.60;68.60
64551;BME280;50945;44.472;-123.352;2023-07-08T13:41:34;100355.72;;;13.62;68.65
64551;BME280;50945;44.472;-123.352;2023-07-08T13:44:08;100351.91;;;13.63;68.62
64551;BME280;50945;44.472;-123.352;2023-07-08T13:46:37;100359.72;;;13.66;68.04
64551;BME280;50945;44.472;-123.352;2023-07-08T13:51:47;100350.03;;;13.70;68.74